Meath Environmental Platform

Observations

Time Sensor AQI SAQ Temp °C Hum % Pres Pa CO μg/m³ H₂S μg/m³ NO μg/m³ NO₂ μg/m³ O₃ μg/m³ SO₂ μg/m³ CO₂e PPM VOC PPM PM1 μg/m³ PM2.5 μg/m³ PM4 μg/m³ PM10 μg/m³ TPS µm
Thursday 13 August 2026
01:27 Trim Market St 3 21.8 61 57,848 0 0 1.11 22.78 61.76 0 2.85 4.99 8.21
01:26 Trim Patrick St 3 21.1 65 76,134 0 7.69 1.11 25.99 41.72 4.69 5.43 9.86 10.85
01:25 Trim Patrick St 3 21.1 65 76,081 0 8.58 1.11 17.94 55.09 4.96 4.57 9.86 10.85
01:25 Trim Market St 3 21.9 61 57,854 0 0 1.1 18.1 61.67 0 3.56 4.99 6.85
01:23 Trim Patrick St 3 21.2 65 75,965 0 13.57 1.1 39.97 43.66 4.65 5.43 9.88 10.87
01:23 Trim Market St 3 21.9 61 57,859 0 0 1.12 18.14 53.27 0 2.85 4.5 6.16
01:22 Trim Patrick St 3 21.2 64 75,845 0 9.85 1.12 31.58 42.67 4.52 4.57 9.19 10.11
01:21 Trim Patrick St 3 21.2 64 75,780 0 7.5 1.12 15.89 55.47 5.14 3.71 8.44 9.29
01:21 Trim Market St 3 21.9 60 57,866 0 0 1.12 17.92 64.58 0 2.14 4.5 6.16
01:20 Trim Patrick St 3 21.2 64 75,743 0 11.4 1.13 26.73 48.66 4.55 6.29 9.93 10.92
01:20 Trim Market St 3 21.9 60 57,869 0 0 1.13 18.77 63.44 0 2.14 4.51 6.84
01:18 Trim Patrick St 3 21.2 63 75,574 0 9.95 1.16 44.69 33.51 4.18 4.57 9.26 10.18
01:17 Trim Patrick St 3 21.2 64 75,487 0 8.55 1.14 18.52 52.53 4.5 6.29 9.96 10.95
01:16 Trim Market St 3 21.9 60 57,876 0 0 1.12 20.26 66.11 0 4.28 6.52 10.27
01:16 Trim Patrick St 3 21.3 62 75,444 0 11.45 1.16 26.47 54.5 5.02 4.57 8.59 9.45
01:15 Trim Patrick St 3 21.3 62 75,344 0 11.64 1.16 40.2 33.78 4.09 4.57 9.35 10.29
01:14 Trim Market St 3 22 60 57,883 0 0 1.11 22.98 56.05 0 2.14 4.02 5.47
01:14 Trim Patrick St 3 21.3 63 75,245 0 10.74 1.13 20.69 49.29 4.85 5.43 9.98 10.98
01:13 Trim Patrick St 3 21.3 63 75,184 0 10.4 1.14 38.27 44.55 4.12 4.57 9.26 10.18
01:12 Trim Patrick St 3 21.3 64 75,092 0 12.09 1.12 30.04 41.95 4.07 5.43 9.96 10.96